Paskenta, California
Current Conditions -  °F | °C
As of 11:54 AM on Thursday 30 Oct 2014 (Local Time) from KRBL Reporting Station
Clear Clear  
Wind Chill: 70°   Ceiling: Unl
Heat Index: 70°   Visibility: 10mi
Dew Point: 53°   Wind: 3mph
Humidity: 55%   Direction: 90°E
Pressure: 29.94"   Gusts: NA
Location:  39.88°N, 122.55°W
Report Text: KRBL 301854Z AUTO 09003KT 10SM CLR 21/12 A2994 RMK AO2 SLP137 T02110117
Loading
Personal Weather Stations






























Interactive Weather Map
Tropical Storm Tracking
New forecast layout! Learn more

10-Day Weather Forecast

Advertisements
Track Severe Weather on mobile